Time;durP1;ratioP1;P1;durP2;ratioP2;P2;SDS_P1;SDS_P2;PMS_P1;PMS_P2;Temp;Humidity;BMP_temperature;BMP_pressure;BME280_temperature;BME280_humidity;BME280_pressure;Samples;Min_cycle;Max_cycle;Signal;HPM_P1;HPM_P2
2022/11/30 00:01:29;;;;;;;17.75;11.05;;;4.20;99.90;;;;;;4849553;29;20123;-72
2022/11/30 00:03:55;;;;;;;17.15;11.35;;;4.20;99.90;;;;;;4857698;29;20041;-72
2022/11/30 00:06:21;;;;;;;15.50;10.88;;;4.30;99.90;;;;;;4859133;29;20028;-72
2022/11/30 00:08:48;;;;;;;15.70;9.80;;;4.30;99.90;;;;;;4860093;29;20041;-72
2022/11/30 00:11:19;;;;;;;13.65;9.32;;;4.40;99.90;;;;;;4856491;29;20033;-73
2022/11/30 00:13:46;;;;;;;14.25;10.32;;;4.40;99.90;;;;;;4858865;29;20068;-72
2022/11/30 00:16:12;;;;;;;14.20;10.35;;;4.40;99.90;;;;;;4854281;29;20033;-72
2022/11/30 00:18:38;;;;;;;13.40;9.90;;;4.40;99.90;;;;;;4859661;29;20574;-72
2022/11/30 00:21:07;;;;;;;13.48;9.02;;;4.40;99.90;;;;;;4824361;29;1122087;-70
2022/11/30 00:23:38;;;;;;;12.70;8.77;;;4.40;99.90;;;;;;4863221;29;20056;-72
2022/11/30 00:26:06;;;;;;;12.77;8.88;;;4.40;99.90;;;;;;4851326;29;20061;-72
2022/11/30 00:28:33;;;;;;;13.27;9.10;;;4.40;99.90;;;;;;4863004;29;20051;-72
2022/11/30 00:31:03;;;;;;;14.23;9.52;;;4.40;99.90;;;;;;4860360;29;20037;-72
2022/11/30 00:33:32;;;;;;;11.63;8.68;;;4.50;99.90;;;;;;4851693;29;20033;-73
2022/11/30 00:36:01;;;;;;;12.43;8.95;;;4.50;99.90;;;;;;4843935;29;20069;-72
2022/11/30 00:38:26;;;;;;;12.77;8.48;;;4.50;99.90;;;;;;4856259;29;20033;-72
2022/11/30 00:40:52;;;;;;;12.10;8.60;;;4.50;99.90;;;;;;4857990;29;20053;-71
2022/11/30 00:43:18;;;;;;;12.32;8.65;;;4.50;99.90;;;;;;4865938;29;20067;-71
2022/11/30 00:45:43;;;;;;;13.23;9.20;;;4.60;99.90;;;;;;4856876;29;20522;-71
2022/11/30 00:48:09;;;;;;;11.43;8.13;;;4.60;99.90;;;;;;4858142;29;20321;-72
2022/11/30 00:50:34;;;;;;;12.95;8.80;;;4.70;99.90;;;;;;4857791;29;20061;-71
2022/11/30 00:53:00;;;;;;;12.00;8.65;;;4.70;99.90;;;;;;4857765;29;20045;-71
2022/11/30 00:55:26;;;;;;;12.07;8.38;;;4.70;99.90;;;;;;4859621;29;20053;-73
2022/11/30 00:57:52;;;;;;;11.55;7.70;;;4.70;99.90;;;;;;4850235;29;20039;-71
2022/11/30 01:00:18;;;;;;;9.43;7.68;;;4.70;99.90;;;;;;4858765;29;20144;-72
2022/11/30 01:02:44;;;;;;;10.35;7.63;;;4.70;99.90;;;;;;4862230;29;20456;-72
2022/11/30 01:05:09;;;;;;;11.88;8.05;;;4.60;99.90;;;;;;4856225;29;20040;-72
2022/11/30 01:07:35;;;;;;;11.63;7.13;;;4.60;99.90;;;;;;4855875;29;20041;-71
2022/11/30 01:10:01;;;;;;;10.52;8.45;;;4.50;99.90;;;;;;4857717;29;20049;-71
2022/11/30 01:12:27;;;;;;;12.13;7.57;;;4.50;99.90;;;;;;4857235;29;20037;-71
2022/11/30 01:14:53;;;;;;;10.43;7.95;;;4.60;99.90;;;;;;4852322;29;20055;-71
2022/11/30 01:17:18;;;;;;;10.73;8.02;;;4.70;99.90;;;;;;4856838;29;20857;-72
2022/11/30 01:19:44;;;;;;;11.07;8.15;;;4.60;99.90;;;;;;4857221;29;20053;-72
2022/11/30 01:22:10;;;;;;;11.27;8.15;;;4.60;99.90;;;;;;4863186;29;20157;-72
2022/11/30 01:24:35;;;;;;;9.98;7.25;;;4.50;99.90;;;;;;4840584;29;20041;-72
2022/11/30 01:27:01;;;;;;;12.05;7.63;;;4.50;99.90;;;;;;4833911;29;20045;-72
2022/11/30 01:29:27;;;;;;;10.32;7.32;;;4.50;99.90;;;;;;4856829;29;20053;-72
2022/11/30 01:31:52;;;;;;;11.35;7.88;;;4.40;99.90;;;;;;4860389;29;20152;-73
2022/11/30 01:34:19;;;;;;;10.32;7.75;;;4.40;99.90;;;;;;4857151;29;20045;-74
2022/11/30 01:36:44;;;;;;;11.30;7.85;;;4.40;99.90;;;;;;4851493;29;20045;-72
2022/11/30 01:39:10;;;;;;;9.10;6.57;;;4.50;99.90;;;;;;4849725;29;20518;-72
2022/11/30 01:41:36;;;;;;;9.32;7.00;;;4.50;99.90;;;;;;4856315;29;20045;-72
2022/11/30 01:44:04;;;;;;;9.65;7.10;;;4.50;99.90;;;;;;4855238;29;20048;-72
2022/11/30 01:46:32;;;;;;;8.73;6.85;;;4.50;99.90;;;;;;4848375;29;20165;-71
2022/11/30 01:49:21;;;;;;;9.38;7.20;;;4.50;99.90;;;;;;4849868;29;20518;-73
2022/11/30 01:52:01;;;;;;;10.07;6.90;;;4.60;99.90;;;;;;4858028;29;20076;-72
2022/11/30 01:54:50;;;;;;;10.73;7.15;;;4.60;99.90;;;;;;4854773;29;20037;-73
2022/11/30 01:57:33;;;;;;;8.98;6.60;;;4.60;99.90;;;;;;4848266;29;20040;-73
2022/11/30 02:00:02;;;;;;;9.48;6.70;;;4.70;99.90;;;;;;4856778;29;20459;-71
2022/11/30 02:02:46;;;;;;;9.68;7.20;;;4.70;99.90;;;;;;4857632;29;20047;-73
2022/11/30 02:05:13;;;;;;;8.55;6.38;;;4.60;99.90;;;;;;4851309;29;20166;-73
2022/11/30 02:07:39;;;;;;;8.75;6.68;;;4.50;99.90;;;;;;4854152;29;20178;-73
2022/11/30 02:10:06;;;;;;;9.38;6.47;;;4.60;99.90;;;;;;4854268;29;20037;-73
2022/11/30 02:12:53;;;;;;;9.02;6.82;;;4.60;99.90;;;;;;4840688;29;20681;-73
2022/11/30 02:15:23;;;;;;;8.15;6.13;;;4.60;99.90;;;;;;4855404;29;20053;-73
2022/11/30 02:18:01;;;;;;;8.02;6.40;;;4.60;99.90;;;;;;4854414;29;20033;-73
2022/11/30 02:20:56;;;;;;;11.95;6.55;;;4.60;99.90;;;;;;4849281;29;21195;-73
2022/11/30 02:24:04;;;;;;;9.05;6.18;;;4.70;99.90;;;;;;4854946;29;20049;-73
2022/11/30 02:26:55;;;;;;;8.38;6.20;;;4.60;99.90;;;;;;4847570;29;20046;-73
2022/11/30 02:29:23;;;;;;;7.50;6.07;;;4.70;99.90;;;;;;4832706;29;20045;-73
2022/11/30 02:32:11;;;;;;;7.20;5.97;;;4.70;99.90;;;;;;4851185;29;20202;-73
2022/11/30 02:34:38;;;;;;;8.52;5.63;;;4.80;99.90;;;;;;4835927;29;20049;-73
2022/11/30 02:37:06;;;;;;;7.85;5.65;;;4.80;99.90;;;;;;4855612;29;20039;-73
2022/11/30 02:39:32;;;;;;;7.32;4.93;;;4.70;99.90;;;;;;4854470;29;20073;-73
2022/11/30 02:41:58;;;;;;;8.82;5.72;;;4.70;99.90;;;;;;4856238;29;20713;-73
2022/11/30 02:44:24;;;;;;;6.57;5.43;;;4.80;99.90;;;;;;4857873;29;20060;-73
2022/11/30 02:47:05;;;;;;;6.85;5.22;;;4.70;99.90;;;;;;4853268;29;20247;-73
2022/11/30 02:49:38;;;;;;;6.22;5.10;;;4.70;99.90;;;;;;4853257;29;20469;-73
2022/11/30 02:52:05;;;;;;;7.28;5.15;;;4.70;99.90;;;;;;4860311;29;20048;-73
2022/11/30 02:54:32;;;;;;;7.47;5.18;;;4.70;99.90;;;;;;4861977;29;20048;-73
2022/11/30 02:56:57;;;;;;;7.30;5.20;;;4.70;99.90;;;;;;4859184;29;20049;-73
2022/11/30 02:59:23;;;;;;;7.15;5.38;;;4.60;99.90;;;;;;4846605;29;20054;-73
2022/11/30 03:01:49;;;;;;;5.93;4.78;;;4.60;99.90;;;;;;4854894;29;20067;-73
2022/11/30 03:04:14;;;;;;;6.88;5.22;;;4.60;99.90;;;;;;4857101;29;20746;-73
2022/11/30 03:06:40;;;;;;;8.70;5.47;;;4.50;99.90;;;;;;4860155;29;20131;-74
2022/11/30 03:09:06;;;;;;;7.78;5.20;;;4.40;99.90;;;;;;4857643;29;20532;-73
2022/11/30 03:11:32;;;;;;;5.93;4.95;;;4.30;99.90;;;;;;4859472;29;20049;-73
2022/11/30 03:13:57;;;;;;;8.07;5.25;;;4.40;99.90;;;;;;4856588;29;20333;-74
2022/11/30 03:16:23;;;;;;;5.63;4.50;;;4.40;99.90;;;;;;4851586;29;20048;-73
2022/11/30 03:18:48;;;;;;;6.38;5.10;;;4.40;99.90;;;;;;4849495;29;20049;-73
2022/11/30 03:21:14;;;;;;;8.18;5.35;;;4.40;99.90;;;;;;4859339;29;20063;-74
2022/11/30 03:23:40;;;;;;;6.50;5.03;;;4.50;99.90;;;;;;4864289;29;20040;-74
2022/11/30 03:26:07;;;;;;;7.28;5.15;;;4.50;99.90;;;;;;4864079;29;20037;-73
2022/11/30 03:28:33;;;;;;;7.20;5.20;;;4.50;99.90;;;;;;4857857;29;20096;-74
2022/11/30 03:30:59;;;;;;;6.80;4.95;;;4.50;99.90;;;;;;4841568;29;20033;-73
2022/11/30 03:33:24;;;;;;;6.97;5.38;;;4.50;99.90;;;;;;4857948;29;20053;-73
2022/11/30 03:36:04;;;;;;;6.95;4.65;;;4.50;99.90;;;;;;4859129;29;20045;-73
2022/11/30 03:38:31;;;;;;;5.40;4.32;;;4.50;99.90;;;;;;4861854;29;20079;-73
2022/11/30 03:41:05;;;;;;;6.60;4.60;;;4.40;99.90;;;;;;4858721;29;20109;-73
2022/11/30 03:43:32;;;;;;;6.00;4.95;;;4.40;99.90;;;;;;4860211;29;20033;-73
2022/11/30 03:45:57;;;;;;;5.38;4.47;;;4.40;99.90;;;;;;4853955;29;20054;-73
2022/11/30 03:48:23;;;;;;;6.13;4.32;;;4.30;99.90;;;;;;4855929;29;20041;-73
2022/11/30 03:50:49;;;;;;;5.88;4.57;;;4.20;99.90;;;;;;4857041;29;20041;-73
2022/11/30 03:53:17;;;;;;;5.97;4.15;;;4.40;99.90;;;;;;4864704;29;20060;-74
2022/11/30 03:55:42;;;;;;;6.50;3.80;;;4.40;99.90;;;;;;4857476;29;20043;-74
2022/11/30 03:58:08;;;;;;;6.18;4.10;;;4.40;99.90;;;;;;4860846;29;20041;-74
2022/11/30 04:00:33;;;;;;;5.95;3.85;;;4.50;99.90;;;;;;4852182;29;20057;-73
2022/11/30 04:02:59;;;;;;;6.53;4.22;;;4.60;99.90;;;;;;4857292;29;20045;-74
2022/11/30 04:05:25;;;;;;;5.88;4.07;;;4.60;99.90;;;;;;4861338;29;20894;-74
2022/11/30 04:07:50;;;;;;;5.78;3.80;;;4.60;99.90;;;;;;4862791;29;20045;-73
2022/11/30 04:10:16;;;;;;;6.05;4.07;;;4.70;99.90;;;;;;4856914;29;20055;-74
2022/11/30 04:12:41;;;;;;;5.80;4.57;;;4.60;99.90;;;;;;4858329;29;20043;-74
2022/11/30 04:15:07;;;;;;;4.88;3.88;;;4.60;99.90;;;;;;4857684;29;20080;-74
2022/11/30 04:17:33;;;;;;;6.22;3.90;;;4.50;99.90;;;;;;4860815;29;20041;-74
2022/11/30 04:19:59;;;;;;;6.55;4.55;;;4.50;99.90;;;;;;4859382;29;20598;-74
2022/11/30 04:22:24;;;;;;;4.72;3.60;;;4.50;99.90;;;;;;4859561;29;20049;-74
2022/11/30 04:24:50;;;;;;;5.65;3.88;;;4.40;99.90;;;;;;4858534;29;20048;-74
2022/11/30 04:27:15;;;;;;;4.75;3.67;;;4.40;99.90;;;;;;4851206;29;20057;-74
2022/11/30 04:29:41;;;;;;;4.63;3.33;;;4.50;99.90;;;;;;4861918;29;20068;-74
2022/11/30 04:32:06;;;;;;;4.35;3.35;;;4.60;99.90;;;;;;4846111;29;20052;-74
2022/11/30 04:34:32;;;;;;;4.25;3.22;;;4.60;99.90;;;;;;4859087;29;20525;-74
2022/11/30 04:36:57;;;;;;;4.25;3.63;;;4.70;99.90;;;;;;4861301;29;20078;-73
2022/11/30 04:39:23;;;;;;;4.00;3.42;;;4.80;99.90;;;;;;4863460;29;20048;-74
2022/11/30 04:41:49;;;;;;;4.47;3.72;;;4.80;99.90;;;;;;4860386;29;20426;-74
2022/11/30 04:44:14;;;;;;;4.50;3.75;;;4.90;99.90;;;;;;4862703;29;20037;-74
2022/11/30 04:46:40;;;;;;;4.13;3.22;;;4.90;99.90;;;;;;4856106;29;20550;-74
2022/11/30 04:49:05;;;;;;;4.78;3.35;;;5.00;99.90;;;;;;4859120;29;20037;-74
2022/11/30 04:51:31;;;;;;;4.82;3.65;;;5.00;99.90;;;;;;4858137;29;20037;-74
2022/11/30 04:53:56;;;;;;;5.05;3.40;;;5.00;99.90;;;;;;4860846;29;20037;-74
2022/11/30 04:56:22;;;;;;;3.97;3.40;;;5.00;99.90;;;;;;4860362;29;20025;-74
2022/11/30 04:58:47;;;;;;;4.38;3.28;;;4.90;99.90;;;;;;4857288;29;20486;-74
2022/11/30 05:01:13;;;;;;;4.05;3.05;;;4.90;99.90;;;;;;4845806;29;20057;-74
2022/11/30 05:03:38;;;;;;;4.47;3.28;;;4.90;99.90;;;;;;4857095;29;20119;-74
2022/11/30 05:06:04;;;;;;;4.38;3.28;;;4.90;99.90;;;;;;4859017;29;20056;-74
2022/11/30 05:08:30;;;;;;;5.13;3.45;;;4.90;99.90;;;;;;4860615;29;20036;-74
2022/11/30 05:10:55;;;;;;;5.28;3.53;;;4.80;99.90;;;;;;4857737;29;20037;-74
2022/11/30 05:13:24;;;;;;;5.13;3.25;;;4.80;99.90;;;;;;4860009;29;20716;-74
2022/11/30 05:15:52;;;;;;;5.00;3.42;;;4.80;99.90;;;;;;4854464;29;20038;-74
2022/11/30 05:18:18;;;;;;;4.35;3.33;;;4.90;99.90;;;;;;4857140;29;20060;-75
2022/11/30 05:20:51;;;;;;;4.90;3.50;;;4.90;99.90;;;;;;4855618;29;20057;-74
2022/11/30 05:23:18;;;;;;;3.17;2.63;;;4.90;99.90;;;;;;4840168;29;20033;-74
2022/11/30 05:25:44;;;;;;;4.20;3.35;;;4.90;99.90;;;;;;4861606;29;20041;-74
2022/11/30 05:28:10;;;;;;;4.35;3.30;;;4.90;99.90;;;;;;4857127;29;20052;-74
2022/11/30 05:30:38;;;;;;;4.03;2.92;;;4.90;99.90;;;;;;4853748;29;20232;-74
2022/11/30 05:33:04;;;;;;;3.22;2.78;;;4.80;99.90;;;;;;4851440;29;20041;-74
2022/11/30 05:35:30;;;;;;;4.28;2.80;;;4.90;99.90;;;;;;4857319;29;20565;-74
2022/11/30 05:37:55;;;;;;;3.75;2.65;;;4.90;99.90;;;;;;4862173;29;20045;-75
2022/11/30 05:40:21;;;;;;;4.03;3.05;;;4.90;99.90;;;;;;4864079;29;20109;-74
2022/11/30 05:42:47;;;;;;;4.43;3.33;;;5.00;99.90;;;;;;4859761;29;20037;-75
2022/11/30 05:45:12;;;;;;;3.97;3.00;;;5.00;99.90;;;;;;4860705;29;20124;-75
2022/11/30 05:47:38;;;;;;;3.88;3.25;;;5.10;99.90;;;;;;4858569;29;20377;-75
2022/11/30 05:50:04;;;;;;;7.35;3.50;;;5.00;99.90;;;;;;4859979;29;20375;-75
2022/11/30 05:52:30;;;;;;;3.22;2.60;;;5.00;99.90;;;;;;4862586;29;20704;-74
2022/11/30 05:54:56;;;;;;;3.65;2.97;;;5.00;99.90;;;;;;4865352;29;20078;-73
2022/11/30 05:57:21;;;;;;;4.97;3.05;;;5.00;99.90;;;;;;4864833;29;20039;-75
2022/11/30 05:59:47;;;;;;;3.63;2.95;;;5.10;99.90;;;;;;4862605;29;20064;-75
2022/11/30 06:02:12;;;;;;;3.33;2.70;;;5.10;99.90;;;;;;4848726;29;20683;-75
2022/11/30 06:04:38;;;;;;;4.78;2.80;;;5.00;99.90;;;;;;4859246;29;20041;-74
2022/11/30 06:07:03;;;;;;;7.03;3.45;;;5.00;99.90;;;;;;4847544;29;20554;-74
2022/11/30 06:09:29;;;;;;;6.10;4.20;;;5.00;99.90;;;;;;4858540;29;20045;-75
2022/11/30 06:11:55;;;;;;;8.65;2.88;;;5.00;99.90;;;;;;4859361;29;20041;-72
2022/11/30 06:14:20;;;;;;;3.30;2.55;;;5.00;99.90;;;;;;4861082;29;20248;-73
2022/11/30 06:16:46;;;;;;;3.35;2.80;;;5.00;99.90;;;;;;4855307;29;20033;-74
2022/11/30 06:19:11;;;;;;;4.60;2.47;;;5.10;99.90;;;;;;4861519;29;20091;-72
2022/11/30 06:21:37;;;;;;;6.05;2.78;;;5.10;99.90;;;;;;4860816;29;20851;-73
2022/11/30 06:24:03;;;;;;;6.07;2.80;;;5.10;99.90;;;;;;4860659;29;20037;-73
2022/11/30 06:26:28;;;;;;;4.45;2.50;;;5.20;99.90;;;;;;4861218;29;20044;-74
2022/11/30 06:28:54;;;;;;;5.65;2.70;;;5.10;99.90;;;;;;4861536;29;20065;-74
2022/11/30 06:31:19;;;;;;;2.92;2.30;;;5.20;99.90;;;;;;4856000;29;20040;-73
2022/11/30 06:33:45;;;;;;;2.80;2.25;;;5.20;99.90;;;;;;4852596;29;20654;-74
2022/11/30 06:36:11;;;;;;;3.08;2.53;;;5.30;99.90;;;;;;4856537;29;20045;-73
2022/11/30 06:38:37;;;;;;;6.78;2.88;;;5.30;99.90;;;;;;4855427;29;20045;-73
2022/11/30 06:41:08;;;;;;;3.78;2.42;;;5.30;99.90;;;;;;4858226;29;20061;-74
2022/11/30 06:43:38;;;;;;;7.78;2.40;;;5.30;99.90;;;;;;4860350;29;20639;-73
2022/11/30 06:46:05;;;;;;;4.05;2.60;;;5.30;99.90;;;;;;4857305;29;20594;-73
2022/11/30 06:48:31;;;;;;;3.05;2.22;;;5.20;99.90;;;;;;4863426;29;20048;-73
2022/11/30 06:50:57;;;;;;;4.25;3.40;;;5.20;99.90;;;;;;4858627;29;20438;-73
2022/11/30 06:53:23;;;;;;;4.43;2.90;;;5.00;99.90;;;;;;4863899;29;20045;-73
2022/11/30 06:55:49;;;;;;;4.80;2.70;;;5.00;99.90;;;;;;4861264;29;20038;-73
2022/11/30 06:58:14;;;;;;;3.35;2.75;;;5.00;99.90;;;;;;4859879;29;20041;-73
2022/11/30 07:00:41;;;;;;;3.58;2.35;;;5.10;99.90;;;;;;4857019;29;20059;-73
2022/11/30 07:03:07;;;;;;;3.55;2.65;;;5.20;99.90;;;;;;4858429;29;20710;-73
2022/11/30 07:05:40;;;;;;;3.35;2.40;;;5.20;99.90;;;;;;4854802;29;20051;-72
2022/11/30 07:08:05;;;;;;;4.43;2.80;;;5.20;99.90;;;;;;4858991;29;20037;-73
2022/11/30 07:10:31;;;;;;;3.92;2.20;;;5.30;99.90;;;;;;4860513;29;20053;-73
2022/11/30 07:12:56;;;;;;;4.65;3.83;;;5.30;99.90;;;;;;4860775;29;20046;-73
2022/11/30 07:15:22;;;;;;;4.97;3.67;;;5.30;99.90;;;;;;4860771;29;20049;-73
2022/11/30 07:17:48;;;;;;;6.38;5.70;;;5.20;99.90;;;;;;4857363;29;20112;-73
2022/11/30 07:20:13;;;;;;;6.43;5.28;;;5.20;99.90;;;;;;4864478;29;20148;-73
2022/11/30 07:22:39;;;;;;;7.63;5.57;;;5.20;99.90;;;;;;4881275;29;22081;-72
2022/11/30 07:27:49;;;;;;;3.92;3.40;;;5.30;99.90;;;;;;4879734;29;20107;-73
2022/11/30 07:30:15;;;;;;;4.75;2.90;;;5.40;99.90;;;;;;4876630;29;20801;-73
2022/11/30 07:32:41;;;;;;;3.17;2.65;;;5.50;99.90;;;;;;4870357;29;20470;-73
2022/11/30 07:35:07;;;;;;;8.43;3.03;;;5.60;99.90;;;;;;4872151;29;20048;-74
2022/11/30 07:37:32;;;;;;;3.47;2.65;;;5.70;99.90;;;;;;4880368;29;20114;-73
2022/11/30 07:39:58;;;;;;;4.18;3.00;;;5.60;99.90;;;;;;4876972;29;20060;-73
2022/11/30 07:42:23;;;;;;;3.13;2.13;;;5.50;99.90;;;;;;4867706;29;20040;-74
2022/11/30 07:44:49;;;;;;;3.65;2.70;;;5.60;99.90;;;;;;4881071;29;20612;-73
2022/11/30 07:47:15;;;;;;;5.00;2.58;;;5.60;99.90;;;;;;4882161;29;20041;-73
2022/11/30 07:49:41;;;;;;;4.45;3.58;;;5.70;99.90;;;;;;4877888;29;20696;-73
2022/11/30 07:52:07;;;;;;;4.25;3.40;;;5.70;99.90;;;;;;4879813;29;20048;-73
2022/11/30 07:54:33;;;;;;;5.50;3.22;;;5.70;99.90;;;;;;4869601;29;20803;-74
2022/11/30 07:56:58;;;;;;;3.25;2.00;;;5.70;99.90;;;;;;4876021;29;20033;-73
2022/11/30 07:59:24;;;;;;;5.15;2.40;;;5.80;99.90;;;;;;4879967;29;20052;-73
2022/11/30 08:01:50;;;;;;;2.90;2.42;;;5.90;99.90;;;;;;4880506;29;20517;-73
2022/11/30 08:04:15;;;;;;;3.60;2.80;;;6.00;99.90;;;;;;4877783;29;20082;-73
2022/11/30 08:06:41;;;;;;;4.50;2.67;;;6.10;99.90;;;;;;4874350;29;20037;-73
2022/11/30 08:09:06;;;;;;;3.70;2.05;;;6.10;99.90;;;;;;4876254;29;20068;-73
2022/11/30 08:11:34;;;;;;;6.53;3.63;;;6.10;99.90;;;;;;4883436;29;20060;-73
2022/11/30 08:14:01;;;;;;;3.17;2.45;;;6.20;99.90;;;;;;4881995;29;20108;-73
2022/11/30 08:16:28;;;;;;;5.57;2.85;;;6.20;99.90;;;;;;4880175;29;20039;-73
2022/11/30 08:18:58;;;;;;;4.63;2.30;;;6.20;99.90;;;;;;4886622;29;20072;-73
2022/11/30 08:21:23;;;;;;;4.25;2.80;;;6.30;99.90;;;;;;4873407;29;20053;-73
2022/11/30 08:23:51;;;;;;;5.18;2.78;;;6.30;99.90;;;;;;4861234;29;20045;-73
2022/11/30 08:26:22;;;;;;;6.28;2.63;;;6.40;99.90;;;;;;4864027;29;20037;-73
2022/11/30 08:28:49;;;;;;;4.88;2.63;;;6.40;99.90;;;;;;4860402;29;20056;-72
2022/11/30 08:31:22;;;;;;;4.18;2.72;;;6.40;99.90;;;;;;4861348;29;20033;-72
2022/11/30 08:33:48;;;;;;;2.88;2.58;;;6.40;99.90;;;;;;4861315;29;20056;-73
2022/11/30 08:36:17;;;;;;;3.30;2.58;;;6.50;99.90;;;;;;4851379;29;20187;-73
2022/11/30 08:38:44;;;;;;;8.68;2.67;;;6.50;99.90;;;;;;4860221;29;20048;-74
2022/11/30 08:41:12;;;;;;;3.42;2.42;;;6.50;99.90;;;;;;4860646;29;20049;-74
2022/11/30 08:43:39;;;;;;;2.50;2.00;;;6.60;99.90;;;;;;4862060;29;20033;-74
2022/11/30 08:46:07;;;;;;;4.53;2.55;;;6.60;99.90;;;;;;4861836;29;20105;-74
2022/11/30 08:48:33;;;;;;;15.30;9.75;;;6.60;99.90;;;;;;4849477;29;20045;-74
2022/11/30 08:51:00;;;;;;;5.57;3.90;;;6.50;99.90;;;;;;4843804;29;20492;-74
2022/11/30 08:53:26;;;;;;;6.18;4.45;;;6.50;99.90;;;;;;4858992;29;20174;-74
2022/11/30 08:55:59;;;;;;;7.45;4.18;;;6.60;99.90;;;;;;4857716;29;20491;-74
2022/11/30 08:58:28;;;;;;;4.15;3.55;;;6.60;99.90;;;;;;4855948;29;20124;-74
2022/11/30 09:00:53;;;;;;;3.88;3.35;;;6.50;99.90;;;;;;4857724;29;20081;-72
2022/11/30 09:03:19;;;;;;;4.75;4.03;;;6.60;99.90;;;;;;4860262;29;20045;-72
2022/11/30 09:05:45;;;;;;;4.65;3.72;;;6.60;99.90;;;;;;4835752;29;20048;-71
2022/11/30 09:08:10;;;;;;;3.83;3.05;;;6.70;99.90;;;;;;4854634;29;20490;-72
2022/11/30 09:10:36;;;;;;;7.40;4.20;;;6.70;99.90;;;;;;4857914;29;20040;-72
2022/11/30 09:13:01;;;;;;;12.55;9.70;;;6.60;99.90;;;;;;4860016;29;20128;-72
2022/11/30 09:15:27;;;;;;;17.40;14.55;;;6.70;99.90;;;;;;4852143;29;20313;-71
2022/11/30 09:17:53;;;;;;;29.10;24.10;;;6.60;99.90;;;;;;4851868;29;20041;-72
2022/11/30 09:20:18;;;;;;;11.40;9.02;;;6.60;99.90;;;;;;4855735;29;20517;-72
2022/11/30 09:22:44;;;;;;;113.40;81.93;;;6.60;99.90;;;;;;4853632;29;20545;-73
2022/11/30 09:25:09;;;;;;;4.60;4.20;;;6.60;99.90;;;;;;4856318;29;20321;-72
2022/11/30 09:27:35;;;;;;;3.40;2.70;;;6.70;99.90;;;;;;4859037;29;20051;-72
2022/11/30 09:30:01;;;;;;;3.03;2.67;;;6.70;99.90;;;;;;4838680;29;20474;-72
2022/11/30 09:32:28;;;;;;;3.35;2.83;;;6.60;99.90;;;;;;4855056;29;20056;-72
2022/11/30 09:34:54;;;;;;;3.45;3.15;;;6.60;99.90;;;;;;4838862;29;20710;-72
2022/11/30 09:37:19;;;;;;;2.97;2.08;;;6.70;99.90;;;;;;4848382;29;20049;-72
2022/11/30 09:39:45;;;;;;;3.47;1.85;;;6.80;99.90;;;;;;4857689;29;20197;-71
2022/11/30 09:42:26;;;;;;;2.65;1.73;;;6.90;99.90;;;;;;4850308;29;20064;-71
2022/11/30 09:45:00;;;;;;;2.33;1.90;;;6.80;99.90;;;;;;4853206;29;20120;-71
2022/11/30 09:47:38;;;;;;;3.90;2.22;;;6.90;99.90;;;;;;4856190;29;20467;-72
2022/11/30 09:50:13;;;;;;;2.35;1.67;;;7.00;99.90;;;;;;4844027;29;20088;-69
2022/11/30 09:52:47;;;;;;;1.38;1.27;;;7.00;99.90;;;;;;4845106;29;20085;-70
2022/11/30 09:55:26;;;;;;;2.20;1.42;;;7.00;99.90;;;;;;4853764;29;20037;-71
2022/11/30 09:57:55;;;;;;;2.92;1.50;;;7.00;99.90;;;;;;4853702;29;20041;-69
2022/11/30 10:00:23;;;;;;;3.53;3.22;;;7.00;99.90;;;;;;4860109;29;20044;-70
2022/11/30 10:02:51;;;;;;;2.38;2.10;;;7.00;99.90;;;;;;4859550;29;20313;-69
2022/11/30 10:05:46;;;;;;;2.30;1.98;;;7.00;99.90;;;;;;4859884;29;20029;-72
2022/11/30 10:08:30;;;;;;;6.93;3.55;;;7.00;99.90;;;;;;4848205;29;20076;-71
2022/11/30 10:11:37;;;;;;;3.55;3.00;;;7.00;99.90;;;;;;4858684;29;20614;-72
2022/11/30 10:14:24;;;;;;;14.07;5.35;;;7.10;99.90;;;;;;4802524;29;20041;-70
2022/11/30 10:17:14;;;;;;;3.28;2.58;;;7.10;99.90;;;;;;4849690;29;20041;-70
2022/11/30 10:19:56;;;;;;;4.40;3.53;;;7.10;99.90;;;;;;4859607;29;20040;-70
2022/11/30 10:22:27;;;;;;;5.93;3.45;;;7.00;99.90;;;;;;4870800;29;20109;-70
2022/11/30 10:25:09;;;;;;;4.07;3.63;;;7.00;99.90;;;;;;4859805;29;20041;-70
2022/11/30 10:27:51;;;;;;;4.28;3.15;;;7.00;99.90;;;;;;4856848;29;20041;-70
2022/11/30 10:30:23;;;;;;;3.45;2.28;;;7.10;99.90;;;;;;4861572;29;20041;-70
2022/11/30 10:32:54;;;;;;;6.00;2.15;;;7.10;99.90;;;;;;4858543;29;20036;-70
2022/11/30 10:35:54;;;;;;;4.18;2.70;;;7.20;99.90;;;;;;4861280;29;20041;-70
2022/11/30 10:38:25;;;;;;;2.30;2.10;;;7.30;99.90;;;;;;4856157;29;20052;-70
2022/11/30 10:41:04;;;;;;;2.95;2.58;;;7.30;99.90;;;;;;4863458;29;20536;-70
2022/11/30 10:43:55;;;;;;;3.28;2.67;;;7.30;99.90;;;;;;4865315;29;20045;-69
2022/11/30 10:46:29;;;;;;;3.92;2.60;;;7.30;99.90;;;;;;4862468;29;20045;-70
2022/11/30 10:49:01;;;;;;;3.78;2.10;;;7.30;99.90;;;;;;4863565;29;20045;-70
2022/11/30 10:51:27;;;;;;;3.30;2.67;;;7.40;99.90;;;;;;4863230;29;20143;-70
2022/11/30 10:53:53;;;;;;;6.82;2.80;;;7.40;99.90;;;;;;4863441;29;20045;-70
2022/11/30 10:56:19;;;;;;;3.95;2.55;;;7.40;99.90;;;;;;4864968;29;20041;-70
2022/11/30 10:59:03;;;;;;;4.28;3.47;;;7.40;99.90;;;;;;4861103;29;20033;-70
2022/11/30 11:01:41;;;;;;;11.95;4.40;;;7.40;99.90;;;;;;4863308;29;20523;-70
2022/11/30 11:04:09;;;;;;;7.70;5.47;;;7.40;99.90;;;;;;4860024;29;20048;-70
2022/11/30 11:06:38;;;;;;;4.20;2.65;;;7.40;99.90;;;;;;4866570;29;20101;-70
2022/11/30 11:09:29;;;;;;;3.75;2.60;;;7.40;99.90;;;;;;4854607;29;20041;-70
2022/11/30 11:11:57;;;;;;;4.82;2.40;;;7.40;99.90;;;;;;4859485;29;20133;-70
2022/11/30 11:14:25;;;;;;;9.90;3.05;;;7.50;99.90;;;;;;4843216;29;20052;-70
2022/11/30 11:17:02;;;;;;;3.50;2.85;;;7.60;99.90;;;;;;4858395;29;20049;-70
2022/11/30 11:19:37;;;;;;;3.20;2.47;;;7.60;99.90;;;;;;4864253;29;20064;-70
2022/11/30 11:22:24;;;;;;;9.05;8.15;;;7.60;99.90;;;;;;4857682;29;20053;-70
2022/11/30 11:24:52;;;;;;;9.00;3.28;;;7.70;99.90;;;;;;4859065;29;20042;-70
2022/11/30 11:27:26;;;;;;;9.25;4.07;;;7.70;99.90;;;;;;4844844;29;20041;-70
2022/11/30 11:30:15;;;;;;;11.20;4.45;;;7.80;99.90;;;;;;4848782;29;20052;-70
2022/11/30 11:33:00;;;;;;;17.60;4.53;;;7.80;99.90;;;;;;4856380;29;20101;-70
2022/11/30 11:35:33;;;;;;;3.40;2.95;;;7.80;99.90;;;;;;4855471;29;20037;-70
2022/11/30 11:37:58;;;;;;;4.30;2.90;;;7.80;99.90;;;;;;4860744;29;20876;-69
2022/11/30 11:40:24;;;;;;;4.85;3.50;;;7.80;99.90;;;;;;4857741;29;20864;-69
2022/11/30 11:42:57;;;;;;;7.38;4.65;;;7.80;99.90;;;;;;4862181;29;20716;-69
2022/11/30 11:45:27;;;;;;;8.13;3.95;;;7.80;99.90;;;;;;4845348;29;20048;-70
2022/11/30 11:48:04;;;;;;;4.32;3.00;;;7.90;99.90;;;;;;4861502;29;20108;-70
2022/11/30 11:50:35;;;;;;;2.95;2.53;;;7.90;99.90;;;;;;4858406;29;20871;-69
2022/11/30 11:53:23;;;;;;;3.30;2.45;;;7.80;99.90;;;;;;4863421;29;20529;-70
2022/11/30 11:56:07;;;;;;;3.70;2.60;;;7.90;99.90;;;;;;4843826;29;20097;-70
2022/11/30 11:58:43;;;;;;;2.83;2.28;;;8.00;99.90;;;;;;4861796;29;20045;-70
2022/11/30 12:01:20;;;;;;;3.28;2.90;;;8.10;99.90;;;;;;4854932;29;20403;-70
2022/11/30 12:04:16;;;;;;;2.55;2.15;;;8.10;99.90;;;;;;4857529;29;20041;-70
2022/11/30 12:06:44;;;;;;;4.00;2.80;;;8.00;99.90;;;;;;4859598;29;20039;-70
2022/11/30 12:09:18;;;;;;;2.83;2.17;;;8.00;99.90;;;;;;4854507;29;20612;-70
2022/11/30 12:11:47;;;;;;;4.82;2.80;;;8.20;99.90;;;;;;4859888;29;20514;-70
2022/11/30 12:14:17;;;;;;;3.45;2.50;;;8.20;99.90;;;;;;4854932;29;20053;-71
2022/11/30 12:17:07;;;;;;;4.95;3.90;;;8.20;99.90;;;;;;4845337;29;20180;-70
2022/11/30 12:19:41;;;;;;;13.70;3.53;;;8.20;99.90;;;;;;4852063;29;20164;-70
2022/11/30 12:22:22;;;;;;;7.70;3.17;;;8.30;99.90;;;;;;4863396;29;20040;-70
2022/11/30 12:25:09;;;;;;;3.88;2.85;;;8.30;99.90;;;;;;4855372;29;20075;-70
2022/11/30 12:28:25;;;;;;;4.25;3.13;;;8.30;99.90;;;;;;4856707;29;20052;-70
2022/11/30 12:31:13;;;;;;;4.03;2.15;;;8.30;99.90;;;;;;4835286;29;20097;-71
2022/11/30 12:34:06;;;;;;;7.72;3.85;;;8.20;99.90;;;;;;4843916;29;20550;-70
2022/11/30 12:36:50;;;;;;;5.63;3.40;;;8.20;99.90;;;;;;4855042;29;20057;-72
2022/11/30 12:39:41;;;;;;;3.22;2.58;;;8.20;99.90;;;;;;4857815;29;20046;-72
2022/11/30 12:42:21;;;;;;;3.25;2.20;;;8.20;99.90;;;;;;4859773;29;20044;-72
2022/11/30 12:45:32;;;;;;;3.70;2.72;;;8.20;99.90;;;;;;4858105;29;20060;-72
2022/11/30 12:48:22;;;;;;;7.95;3.05;;;8.20;99.90;;;;;;4852666;29;20037;-71
2022/11/30 12:50:56;;;;;;;4.65;2.40;;;8.30;99.90;;;;;;4860637;29;20052;-72
2022/11/30 12:53:59;;;;;;;3.13;2.40;;;8.40;99.90;;;;;;4857093;29;20116;-72
2022/11/30 12:56:46;;;;;;;3.00;2.15;;;8.40;99.90;;;;;;4839643;29;20267;-72
2022/11/30 12:59:26;;;;;;;14.27;3.00;;;8.60;99.90;;;;;;4861781;29;20048;-72
2022/11/30 13:02:14;;;;;;;4.25;2.67;;;8.70;99.90;;;;;;4851975;29;20045;-72
2022/11/30 13:04:54;;;;;;;8.38;2.03;;;8.70;99.90;;;;;;4833956;29;20529;-72
2022/11/30 13:07:28;;;;;;;11.70;3.72;;;8.70;99.90;;;;;;4850784;29;20045;-72
2022/11/30 13:10:26;;;;;;;3.63;2.10;;;8.70;99.90;;;;;;4858530;29;20095;-71
2022/11/30 13:12:53;;;;;;;11.70;3.00;;;8.70;99.90;;;;;;4842899;29;20145;-72
2022/11/30 13:15:26;;;;;;;4.43;2.42;;;8.70;99.90;;;;;;4850694;29;20099;-72